sensor_id;sensor_type;location;lat;lon;timestamp;temperature;humidity
6696;DHT22;3385;48.928;10.330;2023-11-18T00:00:19;4.00;99.90
6696;DHT22;3385;48.928;10.330;2023-11-18T00:02:45;4.00;99.90
6696;DHT22;3385;48.928;10.330;2023-11-18T00:05:12;4.00;99.90
6696;DHT22;3385;48.928;10.330;2023-11-18T00:07:38;4.10;99.90
6696;DHT22;3385;48.928;10.330;2023-11-18T00:10:04;4.00;99.90
6696;DHT22;3385;48.928;10.330;2023-11-18T00:12:32;4.10;99.90
6696;DHT22;3385;48.928;10.330;2023-11-18T00:15:03;4.10;99.90
6696;DHT22;3385;48.928;10.330;2023-11-18T00:17:32;4.10;99.90
6696;DHT22;3385;48.928;10.330;2023-11-18T00:19:58;4.10;99.90
6696;DHT22;3385;48.928;10.330;2023-11-18T00:22:24;4.10;99.90
6696;DHT22;3385;48.928;10.330;2023-11-18T00:24:50;4.10;99.90
6696;DHT22;3385;48.928;10.330;2023-11-18T00:27:17;4.20;99.90
6696;DHT22;3385;48.928;10.330;2023-11-18T00:29:43;4.10;99.90
6696;DHT22;3385;48.928;10.330;2023-11-18T00:32:09;4.10;99.90
6696;DHT22;3385;48.928;10.330;2023-11-18T00:34:35;4.00;99.90
6696;DHT22;3385;48.928;10.330;2023-11-18T00:37:01;4.10;99.90
6696;DHT22;3385;48.928;10.330;2023-11-18T00:39:27;4.10;99.90
6696;DHT22;3385;48.928;10.330;2023-11-18T00:41:53;4.10;99.90
6696;DHT22;3385;48.928;10.330;2023-11-18T00:44:19;4.10;99.90
6696;DHT22;3385;48.928;10.330;2023-11-18T00:46:44;4.10;99.90
6696;DHT22;3385;48.928;10.330;2023-11-18T00:49:10;4.20;99.90
6696;DHT22;3385;48.928;10.330;2023-11-18T00:51:39;4.20;99.90
6696;DHT22;3385;48.928;10.330;2023-11-18T00:54:05;4.10;99.90
6696;DHT22;3385;48.928;10.330;2023-11-18T00:56:33;4.10;99.90
6696;DHT22;3385;48.928;10.330;2023-11-18T00:58:59;4.10;99.90
6696;DHT22;3385;48.928;10.330;2023-11-18T01:01:27;4.10;99.90
6696;DHT22;3385;48.928;10.330;2023-11-18T01:03:53;4.10;99.90
6696;DHT22;3385;48.928;10.330;2023-11-18T01:06:19;4.10;99.90
6696;DHT22;3385;48.928;10.330;2023-11-18T01:08:45;4.10;99.90
6696;DHT22;3385;48.928;10.330;2023-11-18T01:11:16;4.10;99.90
6696;DHT22;3385;48.928;10.330;2023-11-18T01:13:45;4.20;99.90
6696;DHT22;3385;48.928;10.330;2023-11-18T01:16:11;4.10;99.90
6696;DHT22;3385;48.928;10.330;2023-11-18T01:18:37;4.10;99.90
6696;DHT22;3385;48.928;10.330;2023-11-18T01:21:03;4.10;99.90
6696;DHT22;3385;48.928;10.330;2023-11-18T01:23:28;4.10;99.90
6696;DHT22;3385;48.928;10.330;2023-11-18T01:25:54;4.10;99.90
6696;DHT22;3385;48.928;10.330;2023-11-18T01:28:21;4.20;99.90
6696;DHT22;3385;48.928;10.330;2023-11-18T01:30:47;4.10;99.90
6696;DHT22;3385;48.928;10.330;2023-11-18T01:33:13;4.10;99.90
6696;DHT22;3385;48.928;10.330;2023-11-18T01:35:40;4.10;99.90
6696;DHT22;3385;48.928;10.330;2023-11-18T01:38:06;4.10;99.90
6696;DHT22;3385;48.928;10.330;2023-11-18T01:40:33;4.10;99.90
6696;DHT22;3385;48.928;10.330;2023-11-18T01:42:58;4.10;99.90
6696;DHT22;3385;48.928;10.330;2023-11-18T01:45:24;4.10;99.90
6696;DHT22;3385;48.928;10.330;2023-11-18T01:47:52;4.20;99.90
6696;DHT22;3385;48.928;10.330;2023-11-18T01:50:19;4.10;99.90
6696;DHT22;3385;48.928;10.330;2023-11-18T01:52:46;4.20;99.90
6696;DHT22;3385;48.928;10.330;2023-11-18T01:55:13;4.20;99.90
6696;DHT22;3385;48.928;10.330;2023-11-18T01:57:39;4.20;99.90
6696;DHT22;3385;48.928;10.330;2023-11-18T02:00:09;4.20;99.90
6696;DHT22;3385;48.928;10.330;2023-11-18T02:02:36;4.10;99.90
6696;DHT22;3385;48.928;10.330;2023-11-18T02:05:04;4.20;99.90
6696;DHT22;3385;48.928;10.330;2023-11-18T02:07:33;4.10;99.90
6696;DHT22;3385;48.928;10.330;2023-11-18T02:10:02;4.20;99.90
6696;DHT22;3385;48.928;10.330;2023-11-18T02:12:50;4.10;99.90
6696;DHT22;3385;48.928;10.330;2023-11-18T02:15:21;4.10;99.90
6696;DHT22;3385;48.928;10.330;2023-11-18T02:17:50;4.10;99.90
6696;DHT22;3385;48.928;10.330;2023-11-18T02:20:18;4.00;99.90
6696;DHT22;3385;48.928;10.330;2023-11-18T02:22:47;4.00;99.90
6696;DHT22;3385;48.928;10.330;2023-11-18T02:25:16;4.00;99.90
6696;DHT22;3385;48.928;10.330;2023-11-18T02:27:43;4.00;99.90
6696;DHT22;3385;48.928;10.330;2023-11-18T02:30:13;4.10;99.90
6696;DHT22;3385;48.928;10.330;2023-11-18T02:32:56;4.10;99.90
6696;DHT22;3385;48.928;10.330;2023-11-18T02:35:25;4.10;99.90
6696;DHT22;3385;48.928;10.330;2023-11-18T02:37:54;4.10;99.90
6696;DHT22;3385;48.928;10.330;2023-11-18T02:40:32;4.10;99.90
6696;DHT22;3385;48.928;10.330;2023-11-18T02:43:01;4.10;99.90
6696;DHT22;3385;48.928;10.330;2023-11-18T02:45:31;4.10;99.90
6696;DHT22;3385;48.928;10.330;2023-11-18T02:47:57;4.10;99.90
6696;DHT22;3385;48.928;10.330;2023-11-18T02:50:24;4.10;99.90
6696;DHT22;3385;48.928;10.330;2023-11-18T02:52:50;4.10;99.90
6696;DHT22;3385;48.928;10.330;2023-11-18T02:55:16;4.10;99.90
6696;DHT22;3385;48.928;10.330;2023-11-18T02:57:41;4.10;99.90
6696;DHT22;3385;48.928;10.330;2023-11-18T03:00:08;4.10;99.90
6696;DHT22;3385;48.928;10.330;2023-11-18T03:02:42;4.10;99.90
6696;DHT22;3385;48.928;10.330;2023-11-18T03:05:08;4.00;99.90
6696;DHT22;3385;48.928;10.330;2023-11-18T03:07:37;4.10;99.90
6696;DHT22;3385;48.928;10.330;2023-11-18T03:10:03;4.00;99.90
6696;DHT22;3385;48.928;10.330;2023-11-18T03:12:35;4.00;99.90
6696;DHT22;3385;48.928;10.330;2023-11-18T03:15:01;4.00;99.90
6696;DHT22;3385;48.928;10.330;2023-11-18T03:17:28;4.00;99.90
6696;DHT22;3385;48.928;10.330;2023-11-18T03:19:54;4.00;99.90
6696;DHT22;3385;48.928;10.330;2023-11-18T03:22:19;4.00;99.90
6696;DHT22;3385;48.928;10.330;2023-11-18T03:24:45;4.00;99.90
6696;DHT22;3385;48.928;10.330;2023-11-18T03:27:11;4.00;99.90
6696;DHT22;3385;48.928;10.330;2023-11-18T03:29:37;4.00;99.90
6696;DHT22;3385;48.928;10.330;2023-11-18T03:32:03;4.00;99.90
6696;DHT22;3385;48.928;10.330;2023-11-18T03:34:30;4.00;99.90
6696;DHT22;3385;48.928;10.330;2023-11-18T03:36:56;3.90;99.90
6696;DHT22;3385;48.928;10.330;2023-11-18T03:39:22;4.00;99.90
6696;DHT22;3385;48.928;10.330;2023-11-18T03:41:48;4.00;99.90
6696;DHT22;3385;48.928;10.330;2023-11-18T03:44:15;4.10;99.90
6696;DHT22;3385;48.928;10.330;2023-11-18T03:46:41;4.00;99.90
6696;DHT22;3385;48.928;10.330;2023-11-18T03:49:07;4.00;99.90
6696;DHT22;3385;48.928;10.330;2023-11-18T03:51:33;4.10;99.90
6696;DHT22;3385;48.928;10.330;2023-11-18T03:53:59;4.10;99.90
6696;DHT22;3385;48.928;10.330;2023-11-18T03:56:24;4.10;99.90
6696;DHT22;3385;48.928;10.330;2023-11-18T03:58:52;4.10;99.90
6696;DHT22;3385;48.928;10.330;2023-11-18T04:01:22;4.00;99.90
6696;DHT22;3385;48.928;10.330;2023-11-18T04:03:48;4.10;99.90
6696;DHT22;3385;48.928;10.330;2023-11-18T04:06:14;4.00;99.90
6696;DHT22;3385;48.928;10.330;2023-11-18T04:08:48;4.00;99.90
6696;DHT22;3385;48.928;10.330;2023-11-18T04:11:14;4.00;99.90
6696;DHT22;3385;48.928;10.330;2023-11-18T04:13:43;4.00;99.90
6696;DHT22;3385;48.928;10.330;2023-11-18T04:16:14;4.00;99.90
6696;DHT22;3385;48.928;10.330;2023-11-18T04:18:41;4.00;99.90
6696;DHT22;3385;48.928;10.330;2023-11-18T04:21:07;4.00;99.90
6696;DHT22;3385;48.928;10.330;2023-11-18T04:23:41;4.00;99.90
6696;DHT22;3385;48.928;10.330;2023-11-18T04:26:08;4.00;99.90
6696;DHT22;3385;48.928;10.330;2023-11-18T04:28:34;4.00;99.90
6696;DHT22;3385;48.928;10.330;2023-11-18T04:31:00;3.90;99.90
6696;DHT22;3385;48.928;10.330;2023-11-18T04:33:26;3.90;99.90
6696;DHT22;3385;48.928;10.330;2023-11-18T04:35:52;4.00;99.90
6696;DHT22;3385;48.928;10.330;2023-11-18T04:38:18;3.90;99.90
6696;DHT22;3385;48.928;10.330;2023-11-18T04:40:45;3.90;99.90
6696;DHT22;3385;48.928;10.330;2023-11-18T04:43:13;4.00;99.90
6696;DHT22;3385;48.928;10.330;2023-11-18T04:45:39;4.00;99.90
6696;DHT22;3385;48.928;10.330;2023-11-18T04:48:05;4.00;99.90
6696;DHT22;3385;48.928;10.330;2023-11-18T04:50:31;4.00;99.90
6696;DHT22;3385;48.928;10.330;2023-11-18T04:52:58;4.10;99.90
6696;DHT22;3385;48.928;10.330;2023-11-18T04:55:24;4.00;99.90
6696;DHT22;3385;48.928;10.330;2023-11-18T04:57:52;4.00;99.90
6696;DHT22;3385;48.928;10.330;2023-11-18T05:00:17;4.00;99.90
6696;DHT22;3385;48.928;10.330;2023-11-18T05:02:45;3.90;99.90
6696;DHT22;3385;48.928;10.330;2023-11-18T05:05:15;4.00;99.90
6696;DHT22;3385;48.928;10.330;2023-11-18T05:07:41;3.90;99.90
6696;DHT22;3385;48.928;10.330;2023-11-18T05:10:08;4.00;99.90
6696;DHT22;3385;48.928;10.330;2023-11-18T05:12:36;3.90;99.90
6696;DHT22;3385;48.928;10.330;2023-11-18T05:15:06;3.90;99.90
6696;DHT22;3385;48.928;10.330;2023-11-18T05:17:38;4.00;99.90
6696;DHT22;3385;48.928;10.330;2023-11-18T05:20:05;3.90;99.90
6696;DHT22;3385;48.928;10.330;2023-11-18T05:22:33;4.00;99.90
6696;DHT22;3385;48.928;10.330;2023-11-18T05:24:59;3.90;99.90
6696;DHT22;3385;48.928;10.330;2023-11-18T05:27:24;4.00;99.90
6696;DHT22;3385;48.928;10.330;2023-11-18T05:29:52;4.00;99.90
6696;DHT22;3385;48.928;10.330;2023-11-18T05:32:23;3.90;99.90
6696;DHT22;3385;48.928;10.330;2023-11-18T05:34:51;3.90;99.90
6696;DHT22;3385;48.928;10.330;2023-11-18T05:37:24;3.90;99.90
6696;DHT22;3385;48.928;10.330;2023-11-18T05:39:50;3.90;99.90
6696;DHT22;3385;48.928;10.330;2023-11-18T05:42:27;3.90;99.90
6696;DHT22;3385;48.928;10.330;2023-11-18T05:44:53;3.90;99.90
6696;DHT22;3385;48.928;10.330;2023-11-18T05:47:25;3.80;99.90
6696;DHT22;3385;48.928;10.330;2023-11-18T05:49:51;3.90;99.90
6696;DHT22;3385;48.928;10.330;2023-11-18T05:52:17;3.80;99.90
6696;DHT22;3385;48.928;10.330;2023-11-18T05:54:44;3.80;99.90
6696;DHT22;3385;48.928;10.330;2023-11-18T05:57:09;3.80;99.90
6696;DHT22;3385;48.928;10.330;2023-11-18T05:59:35;3.80;99.90
6696;DHT22;3385;48.928;10.330;2023-11-18T06:02:01;3.80;99.90
6696;DHT22;3385;48.928;10.330;2023-11-18T06:04:29;3.70;99.90
6696;DHT22;3385;48.928;10.330;2023-11-18T06:06:56;3.80;99.90
6696;DHT22;3385;48.928;10.330;2023-11-18T06:09:22;3.70;99.90
6696;DHT22;3385;48.928;10.330;2023-11-18T06:11:51;3.70;99.90
6696;DHT22;3385;48.928;10.330;2023-11-18T06:14:19;3.70;99.90
6696;DHT22;3385;48.928;10.330;2023-11-18T06:16:47;3.70;99.90
6696;DHT22;3385;48.928;10.330;2023-11-18T06:19:13;3.70;99.90
6696;DHT22;3385;48.928;10.330;2023-11-18T06:21:40;3.70;99.90
6696;DHT22;3385;48.928;10.330;2023-11-18T06:24:06;3.70;99.90
6696;DHT22;3385;48.928;10.330;2023-11-18T06:26:32;3.70;99.90
6696;DHT22;3385;48.928;10.330;2023-11-18T06:29:01;3.70;99.90
6696;DHT22;3385;48.928;10.330;2023-11-18T06:31:27;3.80;99.90
6696;DHT22;3385;48.928;10.330;2023-11-18T06:33:55;3.80;99.90
6696;DHT22;3385;48.928;10.330;2023-11-18T06:36:21;3.80;99.90
6696;DHT22;3385;48.928;10.330;2023-11-18T06:38:49;3.80;99.90
6696;DHT22;3385;48.928;10.330;2023-11-18T06:41:16;3.80;99.90
6696;DHT22;3385;48.928;10.330;2023-11-18T06:43:44;3.80;99.90
6696;DHT22;3385;48.928;10.330;2023-11-18T06:46:19;3.80;99.90
6696;DHT22;3385;48.928;10.330;2023-11-18T06:48:49;3.80;99.90
6696;DHT22;3385;48.928;10.330;2023-11-18T06:51:16;3.80;99.90
6696;DHT22;3385;48.928;10.330;2023-11-18T06:53:44;3.90;99.90
6696;DHT22;3385;48.928;10.330;2023-11-18T06:56:10;3.90;99.90
6696;DHT22;3385;48.928;10.330;2023-11-18T06:58:39;4.00;99.90
6696;DHT22;3385;48.928;10.330;2023-11-18T07:01:06;3.90;99.90
6696;DHT22;3385;48.928;10.330;2023-11-18T07:03:32;3.90;99.90
6696;DHT22;3385;48.928;10.330;2023-11-18T07:05:58;3.90;99.90
6696;DHT22;3385;48.928;10.330;2023-11-18T07:08:24;3.90;99.90
6696;DHT22;3385;48.928;10.330;2023-11-18T07:10:50;4.00;99.90
6696;DHT22;3385;48.928;10.330;2023-11-18T07:13:16;4.00;99.90
6696;DHT22;3385;48.928;10.330;2023-11-18T07:15:42;4.00;99.90
6696;DHT22;3385;48.928;10.330;2023-11-18T07:18:08;4.00;99.90
6696;DHT22;3385;48.928;10.330;2023-11-18T07:20:35;4.10;99.90
6696;DHT22;3385;48.928;10.330;2023-11-18T07:23:00;4.00;99.90
6696;DHT22;3385;48.928;10.330;2023-11-18T07:25:26;4.10;99.90
6696;DHT22;3385;48.928;10.330;2023-11-18T07:27:52;4.20;99.90
6696;DHT22;3385;48.928;10.330;2023-11-18T07:30:18;4.20;99.90
6696;DHT22;3385;48.928;10.330;2023-11-18T07:32:45;4.10;99.90
6696;DHT22;3385;48.928;10.330;2023-11-18T07:35:11;4.20;99.90
6696;DHT22;3385;48.928;10.330;2023-11-18T07:37:37;4.30;99.90
6696;DHT22;3385;48.928;10.330;2023-11-18T07:40:04;4.40;99.90
6696;DHT22;3385;48.928;10.330;2023-11-18T07:42:33;4.40;99.90
6696;DHT22;3385;48.928;10.330;2023-11-18T07:45:02;4.50;99.90
6696;DHT22;3385;48.928;10.330;2023-11-18T07:47:30;4.50;99.90
6696;DHT22;3385;48.928;10.330;2023-11-18T07:50:00;4.60;99.90
6696;DHT22;3385;48.928;10.330;2023-11-18T07:52:29;4.60;99.90
6696;DHT22;3385;48.928;10.330;2023-11-18T07:54:55;4.70;99.90
6696;DHT22;3385;48.928;10.330;2023-11-18T07:57:21;4.70;99.90
6696;DHT22;3385;48.928;10.330;2023-11-18T07:59:49;4.70;99.90
6696;DHT22;3385;48.928;10.330;2023-11-18T08:02:15;4.60;99.90
6696;DHT22;3385;48.928;10.330;2023-11-18T08:04:42;4.60;99.90
6696;DHT22;3385;48.928;10.330;2023-11-18T08:07:08;4.70;99.90
6696;DHT22;3385;48.928;10.330;2023-11-18T08:09:36;4.70;99.90
6696;DHT22;3385;48.928;10.330;2023-11-18T08:12:05;4.60;99.90
6696;DHT22;3385;48.928;10.330;2023-11-18T08:14:34;4.60;99.90
6696;DHT22;3385;48.928;10.330;2023-11-18T08:17:00;4.70;99.90
6696;DHT22;3385;48.928;10.330;2023-11-18T08:19:26;4.60;99.90
6696;DHT22;3385;48.928;10.330;2023-11-18T08:21:52;4.60;99.90
6696;DHT22;3385;48.928;10.330;2023-11-18T08:24:17;4.70;99.90
6696;DHT22;3385;48.928;10.330;2023-11-18T08:26:43;4.60;99.90
6696;DHT22;3385;48.928;10.330;2023-11-18T08:29:11;4.70;99.90
6696;DHT22;3385;48.928;10.330;2023-11-18T08:31:38;4.80;99.90
6696;DHT22;3385;48.928;10.330;2023-11-18T08:34:05;5.00;99.90
6696;DHT22;3385;48.928;10.330;2023-11-18T08:36:33;5.20;99.90
6696;DHT22;3385;48.928;10.330;2023-11-18T08:38:59;5.40;99.90
6696;DHT22;3385;48.928;10.330;2023-11-18T08:41:25;5.20;99.90
6696;DHT22;3385;48.928;10.330;2023-11-18T08:43:50;5.40;99.90
6696;DHT22;3385;48.928;10.330;2023-11-18T08:46:17;5.70;99.90
6696;DHT22;3385;48.928;10.330;2023-11-18T08:48:43;6.00;99.90
6696;DHT22;3385;48.928;10.330;2023-11-18T08:51:10;6.20;99.90
6696;DHT22;3385;48.928;10.330;2023-11-18T08:53:38;6.20;99.90
6696;DHT22;3385;48.928;10.330;2023-11-18T08:56:09;6.20;99.90
6696;DHT22;3385;48.928;10.330;2023-11-18T08:58:44;6.40;99.90
6696;DHT22;3385;48.928;10.330;2023-11-18T09:01:10;6.40;99.90
6696;DHT22;3385;48.928;10.330;2023-11-18T09:03:41;6.40;99.90
6696;DHT22;3385;48.928;10.330;2023-11-18T09:06:14;6.50;99.90
6696;DHT22;3385;48.928;10.330;2023-11-18T09:08:47;6.80;99.90
6696;DHT22;3385;48.928;10.330;2023-11-18T09:11:19;6.50;99.90
6696;DHT22;3385;48.928;10.330;2023-11-18T09:13:47;6.50;99.90
6696;DHT22;3385;48.928;10.330;2023-11-18T09:16:15;6.80;99.90
6696;DHT22;3385;48.928;10.330;2023-11-18T09:18:43;7.00;99.90
6696;DHT22;3385;48.928;10.330;2023-11-18T09:21:13;7.10;99.90
6696;DHT22;3385;48.928;10.330;2023-11-18T09:23:45;6.90;99.90
6696;DHT22;3385;48.928;10.330;2023-11-18T09:26:14;7.00;99.90
6696;DHT22;3385;48.928;10.330;2023-11-18T09:28:40;7.40;99.90
6696;DHT22;3385;48.928;10.330;2023-11-18T09:31:06;7.20;99.90
6696;DHT22;3385;48.928;10.330;2023-11-18T09:33:37;7.30;99.90
6696;DHT22;3385;48.928;10.330;2023-11-18T09:36:06;7.70;99.90
6696;DHT22;3385;48.928;10.330;2023-11-18T09:38:37;8.30;99.90
6696;DHT22;3385;48.928;10.330;2023-11-18T09:41:07;8.40;99.90
6696;DHT22;3385;48.928;10.330;2023-11-18T09:43:40;8.40;99.90
6696;DHT22;3385;48.928;10.330;2023-11-18T09:46:16;9.10;99.90
6696;DHT22;3385;48.928;10.330;2023-11-18T09:48:45;9.20;99.90
6696;DHT22;3385;48.928;10.330;2023-11-18T09:51:24;8.90;99.90
6696;DHT22;3385;48.928;10.330;2023-11-18T09:53:52;8.90;99.90
6696;DHT22;3385;48.928;10.330;2023-11-18T10:01:50;9.10;99.90
6696;DHT22;3385;48.928;10.330;2023-11-18T10:04:20;9.50;99.90
6696;DHT22;3385;48.928;10.330;2023-11-18T10:06:49;10.00;99.90
6696;DHT22;3385;48.928;10.330;2023-11-18T10:09:19;9.90;99.90
6696;DHT22;3385;48.928;10.330;2023-11-18T10:11:55;9.80;99.90
6696;DHT22;3385;48.928;10.330;2023-11-18T10:14:51;9.60;99.90
6696;DHT22;3385;48.928;10.330;2023-11-18T10:17:17;9.10;99.90
6696;DHT22;3385;48.928;10.330;2023-11-18T10:19:58;8.60;99.90
6696;DHT22;3385;48.928;10.330;2023-11-18T10:22:38;8.10;99.90
6696;DHT22;3385;48.928;10.330;2023-11-18T10:25:03;7.70;99.90
6696;DHT22;3385;48.928;10.330;2023-11-18T10:27:31;7.60;99.90
6696;DHT22;3385;48.928;10.330;2023-11-18T10:30:04;7.70;99.90
6696;DHT22;3385;48.928;10.330;2023-11-18T10:32:30;7.80;99.90
6696;DHT22;3385;48.928;10.330;2023-11-18T10:35:01;7.70;99.90
6696;DHT22;3385;48.928;10.330;2023-11-18T10:37:31;7.80;99.90
6696;DHT22;3385;48.928;10.330;2023-11-18T10:39:57;7.90;99.90
6696;DHT22;3385;48.928;10.330;2023-11-18T10:42:26;9.10;99.90
6696;DHT22;3385;48.928;10.330;2023-11-18T10:44:58;10.50;99.90
6696;DHT22;3385;48.928;10.330;2023-11-18T10:47:28;11.40;99.90
6696;DHT22;3385;48.928;10.330;2023-11-18T10:49:57;11.00;99.90
6696;DHT22;3385;48.928;10.330;2023-11-18T10:52:26;10.80;99.90
6696;DHT22;3385;48.928;10.330;2023-11-18T10:54:56;10.50;99.90
6696;DHT22;3385;48.928;10.330;2023-11-18T10:57:22;9.80;99.90
6696;DHT22;3385;48.928;10.330;2023-11-18T10:59:59;9.60;99.90
6696;DHT22;3385;48.928;10.330;2023-11-18T11:02:25;9.50;99.90
6696;DHT22;3385;48.928;10.330;2023-11-18T11:05:00;9.20;99.90
6696;DHT22;3385;48.928;10.330;2023-11-18T11:07:26;9.20;99.90
6696;DHT22;3385;48.928;10.330;2023-11-18T11:09:52;8.60;99.90
6696;DHT22;3385;48.928;10.330;2023-11-18T11:12:23;8.50;99.90
6696;DHT22;3385;48.928;10.330;2023-11-18T11:15:12;8.60;99.90
6696;DHT22;3385;48.928;10.330;2023-11-18T11:17:51;8.60;99.90
6696;DHT22;3385;48.928;10.330;2023-11-18T11:20:22;8.80;99.90
6696;DHT22;3385;48.928;10.330;2023-11-18T11:23:27;9.20;99.90
6696;DHT22;3385;48.928;10.330;2023-11-18T11:26:23;9.40;99.90
6696;DHT22;3385;48.928;10.330;2023-11-18T11:31:41;9.50;99.90
6696;DHT22;3385;48.928;10.330;2023-11-18T11:36:42;9.50;99.90
6696;DHT22;3385;48.928;10.330;2023-11-18T11:39:09;9.70;99.90
6696;DHT22;3385;48.928;10.330;2023-11-18T11:41:50;10.00;99.90
6696;DHT22;3385;48.928;10.330;2023-11-18T11:44:17;10.00;99.90
6696;DHT22;3385;48.928;10.330;2023-11-18T11:46:47;10.00;99.90
6696;DHT22;3385;48.928;10.330;2023-11-18T11:49:22;10.10;99.90
6696;DHT22;3385;48.928;10.330;2023-11-18T11:57:28;10.20;99.90
6696;DHT22;3385;48.928;10.330;2023-11-18T11:59:55;10.00;99.90
6696;DHT22;3385;48.928;10.330;2023-11-18T12:02:30;10.10;99.90
6696;DHT22;3385;48.928;10.330;2023-11-18T12:04:58;10.20;99.90
6696;DHT22;3385;48.928;10.330;2023-11-18T12:07:27;10.10;99.90
6696;DHT22;3385;48.928;10.330;2023-11-18T12:09:59;10.00;99.90
6696;DHT22;3385;48.928;10.330;2023-11-18T12:12:27;9.90;99.90
6696;DHT22;3385;48.928;10.330;2023-11-18T12:14:53;9.80;99.90
6696;DHT22;3385;48.928;10.330;2023-11-18T12:17:22;9.70;99.90
6696;DHT22;3385;48.928;10.330;2023-11-18T12:19:50;9.70;99.90
6696;DHT22;3385;48.928;10.330;2023-11-18T12:22:22;9.60;99.90
6696;DHT22;3385;48.928;10.330;2023-11-18T12:33:02;9.60;99.90
6696;DHT22;3385;48.928;10.330;2023-11-18T12:41:34;9.70;99.90
6696;DHT22;3385;48.928;10.330;2023-11-18T12:47:02;9.20;99.90
6696;DHT22;3385;48.928;10.330;2023-11-18T12:49:41;8.70;99.90
6696;DHT22;3385;48.928;10.330;2023-11-18T12:52:08;8.50;99.90
6696;DHT22;3385;48.928;10.330;2023-11-18T12:54:35;8.40;99.90
6696;DHT22;3385;48.928;10.330;2023-11-18T12:57:04;8.20;99.90
6696;DHT22;3385;48.928;10.330;2023-11-18T12:59:35;8.10;99.90
6696;DHT22;3385;48.928;10.330;2023-11-18T13:02:09;8.10;99.90
6696;DHT22;3385;48.928;10.330;2023-11-18T13:04:40;8.20;99.90
6696;DHT22;3385;48.928;10.330;2023-11-18T13:07:06;8.50;99.90
6696;DHT22;3385;48.928;10.330;2023-11-18T13:09:36;8.60;99.90
6696;DHT22;3385;48.928;10.330;2023-11-18T13:12:04;9.00;99.90
6696;DHT22;3385;48.928;10.330;2023-11-18T13:14:32;9.00;99.90
6696;DHT22;3385;48.928;10.330;2023-11-18T13:17:02;9.10;99.90
6696;DHT22;3385;48.928;10.330;2023-11-18T13:19:31;9.30;99.90
6696;DHT22;3385;48.928;10.330;2023-11-18T13:22:04;9.00;99.90
6696;DHT22;3385;48.928;10.330;2023-11-18T13:24:34;8.80;99.90
6696;DHT22;3385;48.928;10.330;2023-11-18T13:27:00;8.60;99.90
6696;DHT22;3385;48.928;10.330;2023-11-18T13:29:30;8.30;99.90
6696;DHT22;3385;48.928;10.330;2023-11-18T13:31:56;8.00;99.90
6696;DHT22;3385;48.928;10.330;2023-11-18T13:34:23;7.90;99.90
6696;DHT22;3385;48.928;10.330;2023-11-18T13:36:50;7.70;99.90
6696;DHT22;3385;48.928;10.330;2023-11-18T13:39:20;7.50;99.90
6696;DHT22;3385;48.928;10.330;2023-11-18T13:41:51;7.30;99.90
6696;DHT22;3385;48.928;10.330;2023-11-18T13:44:36;7.20;99.90
6696;DHT22;3385;48.928;10.330;2023-11-18T13:47:06;7.00;99.90
6696;DHT22;3385;48.928;10.330;2023-11-18T13:49:33;7.00;99.90
6696;DHT22;3385;48.928;10.330;2023-11-18T13:52:02;6.90;99.90
6696;DHT22;3385;48.928;10.330;2023-11-18T13:54:32;6.80;99.90
6696;DHT22;3385;48.928;10.330;2023-11-18T13:56:58;6.70;99.90
6696;DHT22;3385;48.928;10.330;2023-11-18T13:59:28;6.50;99.90
6696;DHT22;3385;48.928;10.330;2023-11-18T14:01:54;6.30;99.90
6696;DHT22;3385;48.928;10.330;2023-11-18T14:04:26;6.20;99.90
6696;DHT22;3385;48.928;10.330;2023-11-18T14:06:56;6.20;99.90
6696;DHT22;3385;48.928;10.330;2023-11-18T14:09:22;6.00;99.90
6696;DHT22;3385;48.928;10.330;2023-11-18T14:11:51;6.00;99.90
6696;DHT22;3385;48.928;10.330;2023-11-18T14:14:17;5.90;99.90
6696;DHT22;3385;48.928;10.330;2023-11-18T14:16:43;5.90;99.90
6696;DHT22;3385;48.928;10.330;2023-11-18T14:19:09;5.90;99.90
6696;DHT22;3385;48.928;10.330;2023-11-18T14:21:36;5.80;99.90
6696;DHT22;3385;48.928;10.330;2023-11-18T14:24:02;5.70;99.90
6696;DHT22;3385;48.928;10.330;2023-11-18T14:26:29;5.60;99.90
6696;DHT22;3385;48.928;10.330;2023-11-18T14:28:56;5.50;99.90
6696;DHT22;3385;48.928;10.330;2023-11-18T14:31:24;5.50;99.90
6696;DHT22;3385;48.928;10.330;2023-11-18T14:33:50;5.50;99.90
6696;DHT22;3385;48.928;10.330;2023-11-18T14:36:17;8.40;99.90
6696;DHT22;3385;48.928;10.330;2023-11-18T14:38:44;5.40;99.90
6696;DHT22;3385;48.928;10.330;2023-11-18T14:41:10;5.30;99.90
6696;DHT22;3385;48.928;10.330;2023-11-18T14:43:36;5.30;99.90
6696;DHT22;3385;48.928;10.330;2023-11-18T14:46:02;5.30;99.90
6696;DHT22;3385;48.928;10.330;2023-11-18T14:48:29;5.40;99.90
6696;DHT22;3385;48.928;10.330;2023-11-18T14:50:55;5.30;99.90
6696;DHT22;3385;48.928;10.330;2023-11-18T14:53:22;5.20;99.90
6696;DHT22;3385;48.928;10.330;2023-11-18T14:55:48;5.10;99.90
6696;DHT22;3385;48.928;10.330;2023-11-18T14:58:14;5.10;99.90
6696;DHT22;3385;48.928;10.330;2023-11-18T15:00:40;5.00;99.90
6696;DHT22;3385;48.928;10.330;2023-11-18T15:03:09;5.00;99.90
6696;DHT22;3385;48.928;10.330;2023-11-18T15:05:35;5.00;99.90
6696;DHT22;3385;48.928;10.330;2023-11-18T15:08:01;4.90;99.90
6696;DHT22;3385;48.928;10.330;2023-11-18T15:10:28;4.80;99.90
6696;DHT22;3385;48.928;10.330;2023-11-18T15:12:55;4.80;99.90
6696;DHT22;3385;48.928;10.330;2023-11-18T15:15:28;4.80;99.90
6696;DHT22;3385;48.928;10.330;2023-11-18T15:17:58;4.80;99.90
6696;DHT22;3385;48.928;10.330;2023-11-18T15:20:24;4.80;99.90
6696;DHT22;3385;48.928;10.330;2023-11-18T15:22:51;4.80;99.90
6696;DHT22;3385;48.928;10.330;2023-11-18T15:25:17;4.70;99.90
6696;DHT22;3385;48.928;10.330;2023-11-18T15:27:46;4.70;99.90
6696;DHT22;3385;48.928;10.330;2023-11-18T15:30:16;4.70;99.90
6696;DHT22;3385;48.928;10.330;2023-11-18T15:32:46;4.70;99.90
6696;DHT22;3385;48.928;10.330;2023-11-18T15:35:13;4.80;99.90
6696;DHT22;3385;48.928;10.330;2023-11-18T15:37:42;4.80;99.90
6696;DHT22;3385;48.928;10.330;2023-11-18T15:40:12;4.90;99.90
6696;DHT22;3385;48.928;10.330;2023-11-18T15:42:42;4.90;99.90
6696;DHT22;3385;48.928;10.330;2023-11-18T15:45:13;4.90;99.90
6696;DHT22;3385;48.928;10.330;2023-11-18T15:47:40;4.90;99.90
6696;DHT22;3385;48.928;10.330;2023-11-18T15:50:09;5.00;99.90
6696;DHT22;3385;48.928;10.330;2023-11-18T15:52:41;5.00;99.90
6696;DHT22;3385;48.928;10.330;2023-11-18T15:55:07;4.90;99.90
6696;DHT22;3385;48.928;10.330;2023-11-18T15:57:43;5.00;99.90
6696;DHT22;3385;48.928;10.330;2023-11-18T16:00:10;5.00;99.90
6696;DHT22;3385;48.928;10.330;2023-11-18T16:02:51;5.00;99.90
6696;DHT22;3385;48.928;10.330;2023-11-18T16:05:18;5.00;99.90
6696;DHT22;3385;48.928;10.330;2023-11-18T16:07:47;5.00;99.90
6696;DHT22;3385;48.928;10.330;2023-11-18T16:10:14;5.00;99.90
6696;DHT22;3385;48.928;10.330;2023-11-18T16:12:59;5.00;99.90
6696;DHT22;3385;48.928;10.330;2023-11-18T16:15:27;5.10;99.90
6696;DHT22;3385;48.928;10.330;2023-11-18T16:17:54;5.00;99.90
6696;DHT22;3385;48.928;10.330;2023-11-18T16:20:21;5.10;99.90
6696;DHT22;3385;48.928;10.330;2023-11-18T16:22:49;5.20;99.90
6696;DHT22;3385;48.928;10.330;2023-11-18T16:25:22;5.20;99.90
6696;DHT22;3385;48.928;10.330;2023-11-18T16:27:52;5.20;99.90
6696;DHT22;3385;48.928;10.330;2023-11-18T16:30:19;5.20;99.90
6696;DHT22;3385;48.928;10.330;2023-11-18T16:32:50;5.20;99.90
6696;DHT22;3385;48.928;10.330;2023-11-18T16:35:19;5.20;99.90
6696;DHT22;3385;48.928;10.330;2023-11-18T16:37:46;5.10;99.90
6696;DHT22;3385;48.928;10.330;2023-11-18T16:40:13;5.10;99.90
6696;DHT22;3385;48.928;10.330;2023-11-18T16:42:48;5.10;99.90